Time;durP1;ratioP1;P1;durP2;ratioP2;P2;SDS_P1;SDS_P2;PMS_P1;PMS_P2;Temp;Humidity;BMP_temperature;BMP_pressure;BME280_temperature;BME280_humidity;BME280_pressure;Samples;Min_cycle;Max_cycle;Signal;HPM_P1;HPM_P2
2021/05/19 00:01:33;;;;;;;14.50;10.38;;;;;;;;;;10306450;28;20070;-66
2021/05/19 00:06:29;;;;;;;15.55;10.48;;;;;;;;;;10301138;28;20044;-66
2021/05/19 00:11:26;;;;;;;13.80;9.77;;;;;;;;;;10303265;28;20064;-66
2021/05/19 00:16:22;;;;;;;17.05;9.95;;;;;;;;;;10297820;28;20072;-66
2021/05/19 00:21:18;;;;;;;15.32;11.10;;;;;;;;;;10308046;28;20093;-64
2021/05/19 00:26:15;;;;;;;17.70;11.20;;;;;;;;;;10296630;28;20410;-64
2021/05/19 00:31:12;;;;;;;14.18;10.80;;;;;;;;;;10288929;28;20082;-64
2021/05/19 00:36:08;;;;;;;14.82;11.48;;;;;;;;;;10285633;28;20064;-65
2021/05/19 00:41:08;;;;;;;13.02;9.45;;;;;;;;;;10299696;28;20068;-68
2021/05/19 00:46:05;;;;;;;13.63;9.85;;;;;;;;;;10296986;28;20048;-67
2021/05/19 00:51:02;;;;;;;14.75;10.15;;;;;;;;;;10290845;28;20037;-67
2021/05/19 00:55:58;;;;;;;17.05;11.07;;;;;;;;;;10298328;28;20036;-68
2021/05/19 01:00:54;;;;;;;15.30;10.18;;;;;;;;;;10300077;28;20119;-66
2021/05/19 01:05:56;;;;;;;15.43;11.55;;;;;;;;;;10297498;28;20387;-66
2021/05/19 01:10:53;;;;;;;18.10;11.85;;;;;;;;;;10300994;28;21579;-67
2021/05/19 01:15:49;;;;;;;20.10;15.18;;;;;;;;;;10298537;28;20068;-67
2021/05/19 01:20:47;;;;;;;21.45;15.85;;;;;;;;;;10297261;28;20079;-65
2021/05/19 01:25:43;;;;;;;23.05;17.02;;;;;;;;;;10290393;28;20036;-64
2021/05/19 01:30:40;;;;;;;20.27;14.20;;;;;;;;;;10293984;28;20068;-64
2021/05/19 01:35:36;;;;;;;21.58;15.15;;;;;;;;;;10287322;28;20469;-66
2021/05/19 01:40:35;;;;;;;22.42;16.00;;;;;;;;;;10295448;28;20049;-64
2021/05/19 01:45:31;;;;;;;26.98;20.00;;;;;;;;;;10290842;28;20499;-68
2021/05/19 01:50:29;;;;;;;28.83;21.10;;;;;;;;;;10296167;28;20061;-68
2021/05/19 01:55:25;;;;;;;27.85;18.80;;;;;;;;;;10294221;28;20087;-65
2021/05/19 02:00:23;;;;;;;30.67;21.45;;;;;;;;;;10293342;28;20056;-65
2021/05/19 02:05:22;;;;;;;32.38;21.88;;;;;;;;;;10291284;28;20071;-65
2021/05/19 02:10:18;;;;;;;29.77;19.52;;;;;;;;;;10281113;28;20041;-65
2021/05/19 02:15:16;;;;;;;27.05;19.40;;;;;;;;;;10298702;28;20048;-64
2021/05/19 02:20:17;;;;;;;24.65;17.92;;;;;;;;;;10298861;28;20105;-64
2021/05/19 02:25:14;;;;;;;23.33;17.15;;;;;;;;;;10294907;28;20041;-65
2021/05/19 02:30:12;;;;;;;25.40;20.38;;;;;;;;;;10292704;28;20449;-65
2021/05/19 02:35:08;;;;;;;30.77;22.88;;;;;;;;;;10295269;28;20094;-65
2021/05/19 02:40:05;;;;;;;31.50;24.17;;;;;;;;;;10295148;28;20456;-64
2021/05/19 02:45:03;;;;;;;29.48;22.88;;;;;;;;;;10295688;28;20751;-67
2021/05/19 02:49:59;;;;;;;32.35;21.45;;;;;;;;;;10292229;28;20456;-69
2021/05/19 02:54:56;;;;;;;28.77;20.85;;;;;;;;;;10295006;28;20072;-68
2021/05/19 02:59:52;;;;;;;36.33;26.63;;;;;;;;;;10294906;28;20048;-68
2021/05/19 03:04:48;;;;;;;34.03;24.95;;;;;;;;;;10303850;28;20041;-66
2021/05/19 03:09:45;;;;;;;39.70;27.90;;;;;;;;;;10302999;28;20067;-65
2021/05/19 03:14:41;;;;;;;36.78;27.58;;;;;;;;;;10303685;28;20048;-65
2021/05/19 03:19:37;;;;;;;33.58;24.92;;;;;;;;;;10301395;28;20083;-68
2021/05/19 03:24:33;;;;;;;37.17;25.75;;;;;;;;;;10298493;28;20056;-64
2021/05/19 03:29:31;;;;;;;34.88;25.48;;;;;;;;;;10301681;28;20464;-66
2021/05/19 03:34:27;;;;;;;41.17;27.33;;;;;;;;;;10297948;28;20048;-64
2021/05/19 03:39:23;;;;;;;35.25;25.55;;;;;;;;;;10296423;28;20095;-67
2021/05/19 03:44:20;;;;;;;37.42;26.58;;;;;;;;;;10305317;28;20520;-66
2021/05/19 03:49:16;;;;;;;35.97;26.92;;;;;;;;;;10309363;28;20101;-69
2021/05/19 03:54:12;;;;;;;33.75;24.58;;;;;;;;;;10300612;28;20044;-68
2021/05/19 03:59:09;;;;;;;31.23;21.48;;;;;;;;;;10301970;28;20068;-68
2021/05/19 04:04:05;;;;;;;31.50;23.38;;;;;;;;;;10310709;28;20463;-68
2021/05/19 04:09:05;;;;;;;33.67;25.80;;;;;;;;;;10306489;28;20447;-68
2021/05/19 04:14:02;;;;;;;34.72;25.30;;;;;;;;;;10307834;28;20130;-66
2021/05/19 04:18:58;;;;;;;31.88;22.45;;;;;;;;;;10309084;28;20555;-66
2021/05/19 04:23:55;;;;;;;29.45;22.83;;;;;;;;;;10300299;28;20061;-67
2021/05/19 04:28:51;;;;;;;32.45;24.60;;;;;;;;;;10300961;28;20044;-67
2021/05/19 04:33:47;;;;;;;31.65;23.60;;;;;;;;;;10304869;28;20139;-69
2021/05/19 04:38:44;;;;;;;29.77;23.50;;;;;;;;;;10307275;28;20052;-69
2021/05/19 04:43:42;;;;;;;28.77;22.05;;;;;;;;;;10298621;28;20394;-69
2021/05/19 04:48:39;;;;;;;28.60;21.55;;;;;;;;;;10298929;28;20131;-69
2021/05/19 04:53:35;;;;;;;25.65;18.90;;;;;;;;;;10297011;28;20106;-70
2021/05/19 04:58:32;;;;;;;23.75;20.08;;;;;;;;;;10298541;28;20071;-70
2021/05/19 05:03:28;;;;;;;26.88;21.88;;;;;;;;;;10302452;28;20037;-70
2021/05/19 05:08:25;;;;;;;26.42;19.65;;;;;;;;;;10305866;28;20762;-68
2021/05/19 05:13:24;;;;;;;27.30;20.77;;;;;;;;;;10303536;28;20044;-68
2021/05/19 05:18:20;;;;;;;27.35;20.63;;;;;;;;;;10308000;28;20491;-68
2021/05/19 05:23:17;;;;;;;22.25;17.33;;;;;;;;;;10302129;28;20049;-68
2021/05/19 05:28:13;;;;;;;20.55;15.82;;;;;;;;;;10297652;28;20044;-65
2021/05/19 05:33:09;;;;;;;18.20;12.95;;;;;;;;;;10297214;28;20727;-68
2021/05/19 05:38:06;;;;;;;18.50;12.25;;;;;;;;;;10300078;28;20090;-69
2021/05/19 05:43:03;;;;;;;16.33;12.85;;;;;;;;;;10303480;28;20149;-68
2021/05/19 05:47:59;;;;;;;14.27;11.38;;;;;;;;;;10300028;28;20037;-69
2021/05/19 05:52:56;;;;;;;14.77;10.30;;;;;;;;;;10301697;28;20067;-69
2021/05/19 05:57:52;;;;;;;14.45;11.68;;;;;;;;;;10305440;28;20334;-69
2021/05/19 06:02:49;;;;;;;11.43;9.43;;;;;;;;;;10305199;28;20613;-71
2021/05/19 06:07:45;;;;;;;14.13;9.68;;;;;;;;;;10304439;28;20041;-71
2021/05/19 06:12:42;;;;;;;11.07;8.73;;;;;;;;;;10304550;28;20049;-70
2021/05/19 06:17:38;;;;;;;10.30;7.53;;;;;;;;;;10303884;28;20386;-71
2021/05/19 06:22:34;;;;;;;10.85;7.60;;;;;;;;;;10302439;28;20066;-71
2021/05/19 06:27:31;;;;;;;11.02;8.30;;;;;;;;;;10295448;28;20497;-69
2021/05/19 06:32:28;;;;;;;10.23;7.63;;;;;;;;;;10293451;28;20053;-69
2021/05/19 06:37:24;;;;;;;9.38;6.88;;;;;;;;;;10302203;28;20048;-69
2021/05/19 06:42:23;;;;;;;7.45;6.05;;;;;;;;;;10304046;28;20102;-69
2021/05/19 06:47:19;;;;;;;7.55;5.53;;;;;;;;;;10307432;28;20523;-69
2021/05/19 06:52:15;;;;;;;6.47;4.43;;;;;;;;;;10303073;28;20076;-69
2021/05/19 06:57:12;;;;;;;8.40;4.53;;;;;;;;;;10303800;28;20410;-69
2021/05/19 07:02:08;;;;;;;5.93;4.03;;;;;;;;;;10304074;28;20044;-69
2021/05/19 07:07:05;;;;;;;6.10;4.20;;;;;;;;;;10299108;28;20071;-69
2021/05/19 07:12:01;;;;;;;5.80;4.25;;;;;;;;;;10295304;28;20449;-69
2021/05/19 07:16:58;;;;;;;6.60;4.38;;;;;;;;;;10298578;28;20045;-69
2021/05/19 07:21:54;;;;;;;7.47;4.53;;;;;;;;;;10299000;28;20041;-69
2021/05/19 07:26:51;;;;;;;7.55;4.93;;;;;;;;;;10295885;28;20045;-69
2021/05/19 07:31:47;;;;;;;7.47;5.45;;;;;;;;;;10294369;28;20049;-69
2021/05/19 07:36:44;;;;;;;8.90;5.55;;;;;;;;;;10304999;28;20060;-70
2021/05/19 07:41:40;;;;;;;6.13;4.47;;;;;;;;;;10289916;28;20060;-70
2021/05/19 07:46:37;;;;;;;8.43;4.78;;;;;;;;;;10312094;28;20078;-70
2021/05/19 07:51:33;;;;;;;7.70;5.43;;;;;;;;;;10297449;28;20273;-70
2021/05/19 07:56:39;;;;;;;10.38;5.72;;;;;;;;;;10296045;28;20052;-69
2021/05/19 08:06:34;;;;;;;7.82;5.63;;;;;;;;;;10298578;28;20053;-69
2021/05/19 08:11:29;;;;;;;7.22;4.43;;;;;;;;;;10307944;28;20040;-69
2021/05/19 08:16:25;;;;;;;9.77;5.80;;;;;;;;;;10305493;28;20064;-70
2021/05/19 08:21:20;;;;;;;8.25;5.35;;;;;;;;;;10287321;28;20052;-69
2021/05/19 08:26:16;;;;;;;7.00;4.38;;;;;;;;;;10297018;28;20045;-69
2021/05/19 08:31:13;;;;;;;6.43;4.47;;;;;;;;;;10290928;28;20171;-69
2021/05/19 08:36:16;;;;;;;6.80;4.20;;;;;;;;;;10302630;28;20037;-69
2021/05/19 08:41:12;;;;;;;8.27;4.57;;;;;;;;;;10305227;28;20078;-69
2021/05/19 08:46:10;;;;;;;8.73;5.82;;;;;;;;;;10292749;28;20037;-69
2021/05/19 08:51:06;;;;;;;12.27;6.00;;;;;;;;;;10294306;28;20063;-68
2021/05/19 08:56:09;;;;;;;9.55;5.10;;;;;;;;;;10295592;28;20540;-69
2021/05/19 09:01:06;;;;;;;8.45;4.40;;;;;;;;;;10301820;28;20547;-68
2021/05/19 09:06:05;;;;;;;7.22;4.25;;;;;;;;;;10304749;28;20048;-68
2021/05/19 09:11:06;;;;;;;5.68;3.95;;;;;;;;;;10310404;28;20040;-68
2021/05/19 09:16:04;;;;;;;7.28;4.75;;;;;;;;;;10309637;28;20471;-68
2021/05/19 09:21:00;;;;;;;9.38;4.38;;;;;;;;;;10304053;28;20060;-68
2021/05/19 09:26:06;;;;;;;8.10;4.25;;;;;;;;;;10302965;28;20048;-68
2021/05/19 09:31:03;;;;;;;6.15;4.20;;;;;;;;;;10303149;28;20041;-69
2021/05/19 09:36:16;;;;;;;6.15;4.45;;;;;;;;;;10305698;28;20036;-68
2021/05/19 09:41:28;;;;;;;8.85;4.72;;;;;;;;;;10305135;28;20052;-68
2021/05/19 09:51:28;;;;;;;6.15;3.53;;;;;;;;;;10306009;28;20556;-69
2021/05/19 09:56:24;;;;;;;7.65;3.50;;;;;;;;;;10305488;28;20718;-69
2021/05/19 10:01:23;;;;;;;5.07;3.22;;;;;;;;;;10302478;28;20102;-68
2021/05/19 10:06:28;;;;;;;18.92;4.80;;;;;;;;;;10298972;28;20643;-69
2021/05/19 10:11:45;;;;;;;5.13;2.78;;;;;;;;;;10308893;28;20127;-69
2021/05/19 10:16:45;;;;;;;4.75;2.65;;;;;;;;;;10308010;28;20579;-69
2021/05/19 10:21:41;;;;;;;9.80;2.97;;;;;;;;;;10306508;28;20490;-69
2021/05/19 10:26:56;;;;;;;6.50;3.25;;;;;;;;;;10299326;28;20063;-69
2021/05/19 10:31:52;;;;;;;6.13;2.92;;;;;;;;;;10304743;28;20626;-69
2021/05/19 10:36:49;;;;;;;5.00;3.00;;;;;;;;;;10305226;28;20410;-69
2021/05/19 10:41:47;;;;;;;5.65;3.13;;;;;;;;;;10295720;28;20068;-69
2021/05/19 10:46:50;;;;;;;4.97;2.20;;;;;;;;;;10293843;28;20045;-69
2021/05/19 10:57:31;;;;;;;6.03;2.80;;;;;;;;;;10304096;28;20040;-69
2021/05/19 11:02:47;;;;;;;3.88;2.13;;;;;;;;;;10300715;28;20118;-69
2021/05/19 11:08:03;;;;;;;3.63;1.70;;;;;;;;;;10303427;28;20094;-69
2021/05/19 11:12:59;;;;;;;3.55;1.90;;;;;;;;;;10306232;28;20048;-69
2021/05/19 11:17:58;;;;;;;6.53;2.08;;;;;;;;;;10306767;28;20037;-69
2021/05/19 11:22:54;;;;;;;5.35;1.92;;;;;;;;;;10300835;28;20045;-69
2021/05/19 11:27:57;;;;;;;4.88;2.40;;;;;;;;;;10303858;28;20045;-69
2021/05/19 11:33:03;;;;;;;4.07;2.03;;;;;;;;;;10305400;28;20064;-69
2021/05/19 11:38:01;;;;;;;5.03;2.38;;;;;;;;;;10307947;28;20074;-69
2021/05/19 11:42:58;;;;;;;4.28;2.08;;;;;;;;;;10308467;28;20067;-69
2021/05/19 11:47:54;;;;;;;4.10;2.10;;;;;;;;;;10301628;28;20091;-70
2021/05/19 11:52:58;;;;;;;4.45;1.58;;;;;;;;;;10300949;28;20032;-69
2021/05/19 11:58:15;;;;;;;3.97;1.50;;;;;;;;;;10311591;28;20045;-69
2021/05/19 12:03:12;;;;;;;5.57;1.60;;;;;;;;;;10301442;28;20441;-69
2021/05/19 12:08:14;;;;;;;5.85;1.85;;;;;;;;;;10307806;28;20048;-69
2021/05/19 12:13:13;;;;;;;5.55;1.42;;;;;;;;;;10290443;28;20079;-69
2021/05/19 12:18:09;;;;;;;5.72;1.45;;;;;;;;;;10310804;28;20045;-69
2021/05/19 12:23:07;;;;;;;2.83;0.90;;;;;;;;;;10300906;28;20127;-69
2021/05/19 12:28:06;;;;;;;3.47;1.55;;;;;;;;;;10304092;28;20036;-69
2021/05/19 12:33:07;;;;;;;4.03;1.52;;;;;;;;;;10305012;28;20037;-69
2021/05/19 12:38:07;;;;;;;4.07;1.80;;;;;;;;;;10307434;28;20494;-69
2021/05/19 12:43:05;;;;;;;3.88;1.40;;;;;;;;;;10305081;28;20071;-69
2021/05/19 12:48:05;;;;;;;4.82;1.20;;;;;;;;;;10292030;28;20445;-68
2021/05/19 12:53:01;;;;;;;3.88;1.20;;;;;;;;;;10295045;28;20563;-69
2021/05/19 12:58:08;;;;;;;2.58;0.85;;;;;;;;;;10302124;28;20036;-69
2021/05/19 13:03:04;;;;;;;4.03;1.38;;;;;;;;;;10299894;28;20086;-69
2021/05/19 13:08:00;;;;;;;4.47;1.40;;;;;;;;;;10307530;28;20056;-69
2021/05/19 13:13:02;;;;;;;2.58;0.63;;;;;;;;;;10305263;28;20131;-69
2021/05/19 13:18:03;;;;;;;2.67;0.77;;;;;;;;;;10303562;28;20456;-69
2021/05/19 13:23:00;;;;;;;3.28;0.80;;;;;;;;;;10300430;28;20044;-69
2021/05/19 13:27:57;;;;;;;3.85;1.17;;;;;;;;;;10303857;28;20394;-69
2021/05/19 13:33:22;;;;;;;3.30;0.88;;;;;;;;;;10281676;28;20094;-69
2021/05/19 13:38:20;;;;;;;3.42;1.15;;;;;;;;;;10299210;28;20077;-70
2021/05/19 13:43:17;;;;;;;2.20;0.80;;;;;;;;;;10290607;28;20040;-69
2021/05/19 13:48:14;;;;;;;4.72;0.95;;;;;;;;;;10296851;28;20044;-68
2021/05/19 13:53:11;;;;;;;1.90;0.60;;;;;;;;;;10295630;28;20414;-69
2021/05/19 13:58:07;;;;;;;4.57;0.95;;;;;;;;;;10294246;28;20075;-68
2021/05/19 14:03:04;;;;;;;4.15;0.90;;;;;;;;;;10289539;28;20619;-69
2021/05/19 14:08:00;;;;;;;2.97;0.73;;;;;;;;;;10289740;28;20041;-69
2021/05/19 14:13:04;;;;;;;6.28;1.65;;;;;;;;;;10302301;28;20093;-69
2021/05/19 14:18:56;;;;;;;4.43;1.02;;;;;;;;;;10307160;28;20090;-69
2021/05/19 14:28:32;;;;;;;4.43;1.50;;;;;;;;;;10300313;28;20529;-70
2021/05/19 14:33:29;;;;;;;8.35;1.65;;;;;;;;;;10296848;28;20084;-69
2021/05/19 15:04:18;;;;;;;3.33;1.20;;;;;;;;;;10299150;28;20068;-68
2021/05/19 15:09:15;;;;;;;5.40;1.40;;;;;;;;;;10307271;28;20036;-68
2021/05/19 15:14:11;;;;;;;3.63;1.58;;;;;;;;;;10305733;28;20102;-69
2021/05/19 15:19:08;;;;;;;4.28;1.30;;;;;;;;;;10307354;28;20044;-69
2021/05/19 15:24:04;;;;;;;2.92;0.98;;;;;;;;;;10305605;28;20098;-69
2021/05/19 15:29:02;;;;;;;5.05;0.98;;;;;;;;;;10305728;28;20615;-69
2021/05/19 15:33:59;;;;;;;5.95;1.45;;;;;;;;;;10306318;28;20036;-69
2021/05/19 15:38:55;;;;;;;1.77;0.70;;;;;;;;;;10299572;28;20460;-69
2021/05/19 15:43:54;;;;;;;4.38;1.20;;;;;;;;;;10310499;28;20078;-69
2021/05/19 15:48:50;;;;;;;4.30;1.60;;;;;;;;;;10312410;28;20109;-70
2021/05/19 15:53:46;;;;;;;5.60;2.17;;;;;;;;;;10304339;28;20479;-70
2021/05/19 15:58:44;;;;;;;5.38;2.05;;;;;;;;;;10300945;28;20036;-69
2021/05/19 16:03:42;;;;;;;4.03;1.83;;;;;;;;;;10304130;28;20649;-69
2021/05/19 16:08:39;;;;;;;7.05;1.20;;;;;;;;;;10306482;28;20072;-69
2021/05/19 16:13:38;;;;;;;6.07;1.50;;;;;;;;;;10306236;28;20040;-69
2021/05/19 16:18:35;;;;;;;3.28;1.15;;;;;;;;;;10305189;28;20047;-70
2021/05/19 16:23:32;;;;;;;3.38;1.70;;;;;;;;;;10303208;28;20494;-70
2021/05/19 16:28:29;;;;;;;5.13;2.00;;;;;;;;;;10298945;28;20071;-69
2021/05/19 16:39:00;;;;;;;3.97;1.85;;;;;;;;;;10297707;28;20037;-70
2021/05/19 16:43:56;;;;;;;3.67;0.93;;;;;;;;;;10298474;28;20048;-70
2021/05/19 16:49:06;;;;;;;4.95;2.25;;;;;;;;;;10297630;28;20051;-69
2021/05/19 16:54:04;;;;;;;6.47;1.65;;;;;;;;;;10288677;28;20059;-69
2021/05/19 16:59:00;;;;;;;3.50;0.93;;;;;;;;;;10298882;28;20041;-69
2021/05/19 17:09:12;;;;;;;5.07;2.63;;;;;;;;;;10299062;28;20532;-69
2021/05/19 17:14:09;;;;;;;4.72;1.88;;;;;;;;;;10296757;28;20506;-68
2021/05/19 17:19:05;;;;;;;1.63;0.70;;;;;;;;;;10296084;28;20482;-68
2021/05/19 17:24:02;;;;;;;3.20;1.40;;;;;;;;;;10289749;28;20032;-68
2021/05/19 17:29:00;;;;;;;3.63;1.45;;;;;;;;;;10296519;28;20044;-68
2021/05/19 17:33:56;;;;;;;4.70;2.47;;;;;;;;;;10301340;28;20547;-67
2021/05/19 17:38:52;;;;;;;4.78;2.38;;;;;;;;;;10294258;28;20521;-69
2021/05/19 17:43:50;;;;;;;3.17;1.67;;;;;;;;;;10283609;28;20869;-69
2021/05/19 17:48:48;;;;;;;4.75;1.90;;;;;;;;;;10295497;28;20458;-68
2021/05/19 17:53:44;;;;;;;4.43;2.10;;;;;;;;;;10294450;28;20079;-69
2021/05/19 17:58:42;;;;;;;4.30;2.00;;;;;;;;;;10301714;28;20041;-69
2021/05/19 18:03:41;;;;;;;6.35;3.30;;;;;;;;;;10286592;28;20044;-68
2021/05/19 18:08:37;;;;;;;5.43;3.20;;;;;;;;;;10295739;28;20483;-68
2021/05/19 18:13:33;;;;;;;6.20;3.17;;;;;;;;;;10290052;28;20178;-68
2021/05/19 18:18:30;;;;;;;3.70;2.17;;;;;;;;;;10287682;28;20130;-68
2021/05/19 18:23:27;;;;;;;4.95;3.10;;;;;;;;;;10288382;28;20045;-68
2021/05/19 18:28:26;;;;;;;7.65;3.90;;;;;;;;;;10298079;28;20052;-68
2021/05/19 18:33:30;;;;;;;4.00;1.75;;;;;;;;;;10295658;28;20056;-69
2021/05/19 18:38:26;;;;;;;;;;;;;;;;;;10295112;28;20090;-68
2021/05/19 18:43:22;;;;;;;5.43;3.15;;;;;;;;;;10289391;28;19982;-68
2021/05/19 18:48:19;;;;;;;6.07;2.90;;;;;;;;;;10288992;28;20102;-68
2021/05/19 18:53:15;;;;;;;3.08;1.35;;;;;;;;;;10301386;28;20068;-68
2021/05/19 18:58:12;;;;;;;4.68;1.58;;;;;;;;;;10283756;28;20102;-69
2021/05/19 19:03:09;;;;;;;5.47;2.10;;;;;;;;;;10286742;28;20542;-68
2021/05/19 19:08:06;;;;;;;6.63;2.60;;;;;;;;;;10295579;28;20051;-68
2021/05/19 19:13:03;;;;;;;6.93;3.13;;;;;;;;;;10278166;28;20037;-68
2021/05/19 19:17:59;;;;;;;5.35;3.17;;;;;;;;;;10288993;28;20049;-68
2021/05/19 19:22:55;;;;;;;5.00;3.05;;;;;;;;;;10299082;28;20072;-68
2021/05/19 19:27:52;;;;;;;5.80;3.80;;;;;;;;;;10297954;28;20098;-68
2021/05/19 19:32:49;;;;;;;10.45;7.07;;;;;;;;;;10312225;28;20072;-69
2021/05/19 19:37:46;;;;;;;8.40;5.18;;;;;;;;;;10295275;28;20044;-68
2021/05/19 19:42:43;;;;;;;11.80;7.45;;;;;;;;;;10297062;28;20098;-68
2021/05/19 19:47:41;;;;;;;12.70;7.88;;;;;;;;;;10282281;28;20055;-68
2021/05/19 19:52:38;;;;;;;11.05;7.82;;;;;;;;;;10287594;28;20043;-68
2021/05/19 19:57:35;;;;;;;16.27;8.35;;;;;;;;;;10302902;28;20457;-69
2021/05/19 20:02:38;;;;;;;9.70;6.65;;;;;;;;;;10296723;28;20040;-68
2021/05/19 20:07:34;;;;;;;10.23;6.00;;;;;;;;;;10295563;28;20445;-67
2021/05/19 20:12:31;;;;;;;10.40;7.30;;;;;;;;;;10293760;28;20119;-67
2021/05/19 20:17:27;;;;;;;8.90;6.13;;;;;;;;;;10304392;28;20114;-67
2021/05/19 20:22:24;;;;;;;9.32;6.40;;;;;;;;;;10302463;28;20052;-66
2021/05/19 20:27:21;;;;;;;15.00;7.93;;;;;;;;;;10291742;28;20136;-68
2021/05/19 20:32:18;;;;;;;14.23;8.50;;;;;;;;;;10295592;28;20049;-69
2021/05/19 20:37:15;;;;;;;12.50;8.00;;;;;;;;;;10299315;28;20051;-66
2021/05/19 20:42:11;;;;;;;12.60;7.70;;;;;;;;;;10306425;28;20505;-68
2021/05/19 20:47:08;;;;;;;10.13;7.13;;;;;;;;;;10300966;28;20118;-68
2021/05/19 20:52:05;;;;;;;9.95;7.63;;;;;;;;;;10300798;28;20098;-69
2021/05/19 20:57:01;;;;;;;10.13;6.70;;;;;;;;;;10306324;28;20119;-68
2021/05/19 21:01:58;;;;;;;8.38;6.57;;;;;;;;;;10300879;28;20090;-69
2021/05/19 21:07:00;;;;;;;13.00;6.68;;;;;;;;;;10291767;28;20529;-68
2021/05/19 21:11:57;;;;;;;12.75;7.95;;;;;;;;;;10296738;28;20497;-65
2021/05/19 21:16:53;;;;;;;12.30;7.85;;;;;;;;;;10303848;28;20098;-66
2021/05/19 21:21:49;;;;;;;10.32;7.13;;;;;;;;;;10289094;28;20078;-66
2021/05/19 21:26:46;;;;;;;9.35;7.20;;;;;;;;;;10300387;28;20832;-70
2021/05/19 21:31:44;;;;;;;12.15;7.38;;;;;;;;;;10298396;28;20079;-70
2021/05/19 21:36:43;;;;;;;11.82;8.77;;;;;;;;;;10295305;28;20040;-70
2021/05/19 21:41:39;;;;;;;11.27;7.60;;;;;;;;;;10301776;28;20492;-70
2021/05/19 21:46:37;;;;;;;14.90;10.52;;;;;;;;;;10301114;28;20074;-70
2021/05/19 21:51:34;;;;;;;15.30;10.52;;;;;;;;;;10292875;28;20094;-70
2021/05/19 21:56:30;;;;;;;14.20;10.13;;;;;;;;;;10298138;28;20053;-69
2021/05/19 22:01:28;;;;;;;15.43;10.02;;;;;;;;;;10289122;28;20057;-65
2021/05/19 22:06:24;;;;;;;15.23;11.43;;;;;;;;;;10287722;28;20110;-65
2021/05/19 22:11:21;;;;;;;16.10;11.10;;;;;;;;;;10301278;28;20083;-65
2021/05/19 22:16:18;;;;;;;16.85;12.77;;;;;;;;;;10304943;28;20048;-66
2021/05/19 22:26:34;;;;;;;21.55;12.85;;;;;;;;;;10300732;28;20068;-65
2021/05/19 22:31:32;;;;;;;18.52;11.35;;;;;;;;;;10295566;28;20049;-66
2021/05/19 22:36:29;;;;;;;18.10;11.50;;;;;;;;;;10301364;28;20053;-66
2021/05/19 22:41:26;;;;;;;13.88;8.98;;;;;;;;;;10300610;28;20052;-65
2021/05/19 22:46:22;;;;;;;15.27;10.85;;;;;;;;;;10286407;28;20106;-65
2021/05/19 22:51:19;;;;;;;12.05;9.25;;;;;;;;;;10298432;28;20040;-67
2021/05/19 22:56:15;;;;;;;15.95;9.68;;;;;;;;;;10297882;28;20044;-69
2021/05/19 23:01:12;;;;;;;13.27;8.50;;;;;;;;;;10301973;28;20056;-65
2021/05/19 23:06:08;;;;;;;11.57;8.20;;;;;;;;;;10291789;28;20087;-65
2021/05/19 23:11:05;;;;;;;13.60;8.70;;;;;;;;;;10298314;28;20482;-68
2021/05/19 23:16:02;;;;;;;14.57;8.73;;;;;;;;;;10301118;28;20068;-68
2021/05/19 23:20:58;;;;;;;11.35;8.25;;;;;;;;;;10299910;28;20098;-66
2021/05/19 23:25:55;;;;;;;13.68;8.07;;;;;;;;;;10288941;28;20044;-66
2021/05/19 23:30:51;;;;;;;13.10;8.18;;;;;;;;;;10293198;28;20084;-67
2021/05/19 23:35:47;;;;;;;12.75;8.52;;;;;;;;;;10297205;28;20052;-69
2021/05/19 23:40:44;;;;;;;11.35;7.63;;;;;;;;;;10285712;28;20079;-70
2021/05/19 23:45:40;;;;;;;10.73;8.05;;;;;;;;;;10291464;28;20049;-69
2021/05/19 23:50:36;;;;;;;10.88;8.30;;;;;;;;;;10291969;28;20041;-69
2021/05/19 23:55:33;;;;;;;13.35;7.93;;;;;;;;;;10302073;28;20052;-67
